createdAt,value
2018-12-15T00:00:10.271Z,8.50
2018-12-15T00:02:38.961Z,8.47
2018-12-15T00:05:07.649Z,8.00
2018-12-15T00:07:36.331Z,8.43
2018-12-15T00:10:05.488Z,8.63
2018-12-15T00:12:34.131Z,8.20
2018-12-15T00:15:02.827Z,8.80
2018-12-15T00:17:31.493Z,8.53
2018-12-15T00:20:00.142Z,7.77
2018-12-15T00:22:28.817Z,7.23
2018-12-15T00:24:57.427Z,7.80
2018-12-15T00:27:26.413Z,11.50
2018-12-15T00:29:55.033Z,8.43
2018-12-15T00:32:23.659Z,7.60
2018-12-15T00:34:52.263Z,7.40
2018-12-15T00:37:20.957Z,7.60
2018-12-15T00:39:49.518Z,7.17
2018-12-15T00:42:18.140Z,7.10
2018-12-15T00:44:46.976Z,6.83
2018-12-15T00:47:15.574Z,6.67
2018-12-15T00:49:44.240Z,6.93
2018-12-15T00:52:12.900Z,6.40
2018-12-15T00:54:41.503Z,7.43
2018-12-15T00:57:10.144Z,6.93
2018-12-15T00:59:38.743Z,7.43
2018-12-15T01:02:07.374Z,8.03
2018-12-15T01:04:36.058Z,7.07
2018-12-15T01:07:04.666Z,7.03
2018-12-15T01:09:33.382Z,7.07
2018-12-15T01:15:38.903Z,8.10
2018-12-15T01:18:07.510Z,8.50
2018-12-15T01:20:36.115Z,9.47
2018-12-15T01:23:04.913Z,8.17
2018-12-15T01:25:33.587Z,8.17
2018-12-15T01:28:02.356Z,8.57
2018-12-15T01:30:31.014Z,8.47
2018-12-15T01:32:59.657Z,8.40
2018-12-15T01:35:28.257Z,9.20
2018-12-15T01:37:56.845Z,9.13
2018-12-15T01:40:26.338Z,9.33
2018-12-15T01:42:55.000Z,8.70
2018-12-15T01:45:23.606Z,9.00
2018-12-15T01:47:52.229Z,8.57
2018-12-15T01:50:20.849Z,8.60
2018-12-15T01:52:49.400Z,8.57
2018-12-15T01:55:18.110Z,8.33
2018-12-15T01:57:46.737Z,7.67
2018-12-15T02:00:15.530Z,8.17
2018-12-15T02:02:44.101Z,9.03
2018-12-15T02:05:12.860Z,9.10
2018-12-15T02:07:41.444Z,10.57
2018-12-15T02:10:10.260Z,9.40
2018-12-15T02:12:38.884Z,9.47
2018-12-15T02:15:08.436Z,8.03
2018-12-15T02:17:37.041Z,7.73
2018-12-15T02:20:06.557Z,7.90
2018-12-15T02:22:35.179Z,7.33
2018-12-15T02:25:03.843Z,7.90
2018-12-15T02:27:32.441Z,8.10
2018-12-15T02:30:01.056Z,7.23
2018-12-15T02:32:29.784Z,7.47
2018-12-15T02:34:58.433Z,7.47
2018-12-15T02:37:29.100Z,7.40
2018-12-15T02:39:57.884Z,7.63
2018-12-15T02:42:26.509Z,7.63
2018-12-15T02:44:55.178Z,7.83
2018-12-15T02:47:23.813Z,7.13
2018-12-15T02:49:52.527Z,7.17
2018-12-15T02:52:21.157Z,6.97
2018-12-15T02:54:49.764Z,7.20
2018-12-15T02:57:18.416Z,7.57
2018-12-15T02:59:46.997Z,7.27
2018-12-15T03:02:15.610Z,6.80
2018-12-15T03:04:44.230Z,6.67
2018-12-15T03:07:12.783Z,7.20
2018-12-15T03:09:41.395Z,7.10
2018-12-15T03:12:10.012Z,6.80
2018-12-15T03:14:38.785Z,6.67
2018-12-15T03:17:07.890Z,6.37
2018-12-15T03:19:36.507Z,6.63
2018-12-15T03:22:05.162Z,7.10
2018-12-15T03:24:33.799Z,7.40
2018-12-15T03:27:02.346Z,6.73
2018-12-15T03:29:30.909Z,6.53
2018-12-15T03:32:00.224Z,6.90
2018-12-15T03:34:28.817Z,6.77
2018-12-15T03:36:57.381Z,6.97
2018-12-15T03:39:26.218Z,6.27
2018-12-15T03:41:55.002Z,6.77
2018-12-15T03:44:23.703Z,6.33
2018-12-15T03:46:52.321Z,6.63
2018-12-15T03:49:21.016Z,6.47
2018-12-15T03:51:49.644Z,6.80
2018-12-15T03:54:18.266Z,6.90
2018-12-15T03:56:46.908Z,6.40
2018-12-15T03:59:15.571Z,7.07
2018-12-15T04:01:44.161Z,7.27
2018-12-15T04:04:12.759Z,7.03
2018-12-15T04:06:41.403Z,6.67
2018-12-15T04:09:10.051Z,6.93
2018-12-15T04:11:38.591Z,7.27
2018-12-15T04:14:07.329Z,6.37
2018-12-15T04:16:35.999Z,6.63
2018-12-15T04:19:04.763Z,6.20
2018-12-15T04:21:33.460Z,6.50
2018-12-15T04:24:02.035Z,6.10
2018-12-15T04:26:30.631Z,6.53
2018-12-15T04:28:59.291Z,6.10
2018-12-15T04:31:28.681Z,6.20
2018-12-15T04:33:57.375Z,6.50
2018-12-15T04:36:26.090Z,6.30
2018-12-15T04:38:54.682Z,7.83
2018-12-15T04:44:02.151Z,8.07
2018-12-15T04:46:30.860Z,7.73
2018-12-15T04:48:59.452Z,8.17
2018-12-15T04:51:28.069Z,7.50
2018-12-15T04:53:56.633Z,6.73
2018-12-15T04:56:25.232Z,6.57
2018-12-15T04:58:53.799Z,6.50
2018-12-15T05:01:22.434Z,7.40
2018-12-15T05:03:51.106Z,7.27
2018-12-15T05:06:19.737Z,7.20
2018-12-15T05:08:48.357Z,8.47
2018-12-15T05:11:17.075Z,7.93
2018-12-15T05:13:45.739Z,7.47
2018-12-15T05:16:14.312Z,7.97
2018-12-15T05:18:42.901Z,8.33
2018-12-15T05:21:11.465Z,7.83
2018-12-15T05:23:40.027Z,8.70
2018-12-15T05:26:08.653Z,8.30
2018-12-15T05:28:37.320Z,8.03
2018-12-15T05:31:06.062Z,9.33
2018-12-15T05:33:35.163Z,9.20
2018-12-15T05:36:03.958Z,9.10
2018-12-15T05:38:32.624Z,9.30
2018-12-15T05:41:01.353Z,10.20
2018-12-15T05:43:29.957Z,10.70
2018-12-15T05:45:58.572Z,8.67
2018-12-15T05:48:27.264Z,5.33
2018-12-15T05:50:55.914Z,6.87
2018-12-15T05:53:24.524Z,6.13
2018-12-15T05:55:53.163Z,6.20
2018-12-15T05:58:21.801Z,6.50
2018-12-15T06:00:50.907Z,6.03
2018-12-15T06:03:19.513Z,6.03
2018-12-15T06:05:48.154Z,5.77
2018-12-15T06:08:16.711Z,5.83
2018-12-15T06:10:45.372Z,6.00
2018-12-15T06:13:13.931Z,6.27
2018-12-15T06:15:42.543Z,6.40
2018-12-15T06:18:12.404Z,7.17
2018-12-15T06:20:41.100Z,7.37
2018-12-15T06:23:09.828Z,8.60
2018-12-15T06:25:38.551Z,6.90
2018-12-15T06:28:07.206Z,6.40
2018-12-15T06:30:36.019Z,6.97
2018-12-15T06:33:05.513Z,7.60
2018-12-15T06:35:34.190Z,6.67
2018-12-15T06:38:02.911Z,6.20
2018-12-15T06:40:31.659Z,6.30
2018-12-15T06:43:00.326Z,6.40
2018-12-15T06:45:28.991Z,6.07
2018-12-15T06:47:57.646Z,6.23
2018-12-15T06:50:26.286Z,6.80
2018-12-15T06:52:55.035Z,6.03
2018-12-15T06:56:26.907Z,7.60
2018-12-15T06:58:55.991Z,5.90
2018-12-15T07:01:24.585Z,7.87
2018-12-15T07:03:53.285Z,6.20
2018-12-15T07:06:21.898Z,7.73
2018-12-15T07:08:50.507Z,6.07
2018-12-15T07:11:19.058Z,8.23
2018-12-15T07:13:47.647Z,6.63
2018-12-15T07:16:16.456Z,7.30
2018-12-15T07:18:45.104Z,7.47
2018-12-15T07:21:13.774Z,8.37
2018-12-15T07:23:42.350Z,19.30
2018-12-15T07:26:10.932Z,18.57
2018-12-15T07:28:43.041Z,16.63
2018-12-15T07:31:11.630Z,13.30
2018-12-15T07:33:40.301Z,10.17
2018-12-15T07:36:09.225Z,10.23
2018-12-15T07:38:37.825Z,12.77
2018-12-15T07:41:06.500Z,10.03
2018-12-15T07:43:36.718Z,9.13
2018-12-15T07:46:05.314Z,10.27
2018-12-15T07:48:33.946Z,12.97
2018-12-15T07:51:02.645Z,12.07
2018-12-15T07:53:31.310Z,14.07
2018-12-15T07:55:59.843Z,13.93
2018-12-15T07:58:28.460Z,12.83
2018-12-15T08:00:57.152Z,11.90
2018-12-15T08:03:26.111Z,14.20
2018-12-15T08:05:54.773Z,11.90
2018-12-15T08:08:23.537Z,9.53
2018-12-15T08:10:57.478Z,9.83
2018-12-15T08:13:30.578Z,9.87
2018-12-15T08:15:59.294Z,9.77
2018-12-15T08:18:27.997Z,9.10
2018-12-15T08:20:56.569Z,10.07
2018-12-15T08:23:25.202Z,9.60
2018-12-15T08:25:53.792Z,8.73
2018-12-15T08:28:22.375Z,9.37
2018-12-15T08:30:51.041Z,9.83
2018-12-15T08:33:21.852Z,9.47
2018-12-15T08:35:50.469Z,9.63
